Time;durP1;ratioP1;P1;durP2;ratioP2;P2;SDS_P1;SDS_P2;PMS_P1;PMS_P2;Temp;Humidity;BMP_temperature;BMP_pressure;BME280_temperature;BME280_humidity;BME280_pressure;Samples;Min_cycle;Max_cycle;Signal;HPM_P1;HPM_P2
2022/01/04 00:00:16;;;;;;;2.13;1.40;;;;;;;9.36;100.00;153763.66;4982628;28;20512;-76
2022/01/04 00:02:51;;;;;;;1.20;0.70;;;;;;;9.36;100.00;153763.66;5008136;28;20822;-76
2022/01/04 00:05:27;;;;;;;2.07;0.80;;;;;;;9.43;100.00;153781.75;5008595;28;20485;-76
2022/01/04 00:08:07;;;;;;;2.17;1.03;;;;;;;9.42;100.00;153779.22;5007248;28;20437;-76
2022/01/04 00:10:44;;;;;;;1.40;1.20;;;;;;;9.37;100.00;153764.97;5008565;28;20445;-76
2022/01/04 00:13:23;;;;;;;1.30;0.97;;;;;;;9.38;100.00;153768.84;5008392;28;20445;-76
2022/01/04 00:15:59;;;;;;;1.07;0.77;;;;;;;9.37;100.00;153766.22;4976739;28;20446;-76
2022/01/04 00:18:35;;;;;;;1.40;1.03;;;;;;;9.36;100.00;153762.38;5008371;28;20778;-76
2022/01/04 00:21:10;;;;;;;2.13;1.20;;;;;;;9.39;100.00;153771.44;5008339;28;20564;-77
2022/01/04 00:23:45;;;;;;;1.00;0.87;;;;;;;9.34;100.00;153757.22;4995925;28;20443;-76
2022/01/04 00:26:22;;;;;;;2.80;1.30;;;;;;;9.33;100.00;153755.91;4988640;28;20446;-76
2022/01/04 00:28:58;;;;;;;2.50;0.90;;;;;;;9.33;100.00;153754.59;4988565;28;20442;-76
2022/01/04 00:31:33;;;;;;;2.17;1.17;;;;;;;9.31;100.00;153749.44;4988463;28;20443;-76
2022/01/04 00:34:09;;;;;;;1.50;1.00;;;;;;;9.27;100.00;153740.38;5002290;28;20531;-76
2022/01/04 00:36:44;;;;;;;1.30;1.00;;;;;;;9.29;100.00;153745.59;4991631;28;20433;-76
2022/01/04 00:39:20;;;;;;;1.23;1.00;;;;;;;9.31;100.00;153750.75;5009225;28;20924;-76
2022/01/04 00:41:57;;;;;;;3.73;1.10;;;;;;;9.28;100.00;153742.97;4992705;28;20485;-76
2022/01/04 00:44:33;;;;;;;1.57;1.00;;;;;;;9.32;100.00;153753.31;4991494;28;20816;-76
2022/01/04 00:47:09;;;;;;;2.57;0.93;;;;;;;9.33;100.00;153755.91;4991469;28;20425;-77
2022/01/04 00:49:44;;;;;;;2.97;1.00;;;;;;;9.30;100.00;153748.13;4991467;28;20800;-76
2022/01/04 00:52:20;;;;;;;2.00;1.03;;;;;;;9.30;100.00;153746.84;5007865;28;20449;-76
2022/01/04 00:54:55;;;;;;;4.10;1.80;;;;;;;9.29;100.00;153745.59;5016900;28;20456;-76
2022/01/04 00:57:32;;;;;;;1.17;1.00;;;;;;;9.29;100.00;153744.28;5012306;28;20508;-76
2022/01/04 01:00:09;;;;;;;2.23;1.47;;;;;;;9.28;100.00;153742.97;5011154;28;20959;-76
2022/01/04 01:02:45;;;;;;;4.53;1.20;;;;;;;9.30;100.00;153746.84;5027420;28;20460;-76
2022/01/04 01:05:24;;;;;;;1.20;1.00;;;;;;;9.31;100.00;153750.75;5027631;28;20476;-76
2022/01/04 01:08:00;;;;;;;1.30;1.00;;;;;;;9.29;100.00;153745.59;4998445;28;20449;-76
2022/01/04 01:10:45;;;;;;;1.50;1.20;;;;;;;9.29;100.00;153745.59;5006738;28;20441;-77
2022/01/04 01:13:22;;;;;;;2.43;1.03;;;;;;;9.29;100.00;153745.59;5009908;28;20450;-76
2022/01/04 01:15:57;;;;;;;2.90;1.03;;;;;;;9.27;100.00;153739.06;5011557;28;20944;-76
2022/01/04 01:18:33;;;;;;;2.00;1.20;;;;;;;9.25;100.00;153733.91;5010349;28;20445;-76
2022/01/04 01:21:10;;;;;;;1.27;1.10;;;;;;;9.23;100.00;153728.75;4995303;28;20536;-77
2022/01/04 01:23:45;;;;;;;2.40;1.30;;;;;;;9.21;100.00;153724.88;5027976;28;20440;-76
2022/01/04 01:26:21;;;;;;;2.40;1.33;;;;;;;9.24;100.00;153732.59;4996330;28;20418;-76
2022/01/04 01:28:59;;;;;;;2.07;1.07;;;;;;;9.22;100.00;153727.44;5011290;28;20527;-77
2022/01/04 01:31:34;;;;;;;2.47;1.30;;;;;;;9.23;100.00;153728.75;4994946;28;20430;-76
2022/01/04 01:34:10;;;;;;;1.90;1.20;;;;;;;9.20;100.00;153722.28;5027713;28;20446;-77
2022/01/04 01:36:45;;;;;;;2.37;1.67;;;;;;;9.21;100.00;153724.88;5011216;28;20940;-77
2022/01/04 01:39:21;;;;;;;1.30;1.17;;;;;;;9.23;100.00;153730.03;4994899;28;20891;-77
2022/01/04 01:41:57;;;;;;;2.30;1.33;;;;;;;9.30;100.00;153748.13;4979504;28;20895;-77
2022/01/04 01:44:35;;;;;;;2.43;1.40;;;;;;;9.28;100.00;153741.69;5009863;28;20512;-77
2022/01/04 01:47:11;;;;;;;1.70;1.13;;;;;;;9.26;100.00;153737.81;4979528;28;20433;-77
2022/01/04 01:49:46;;;;;;;2.27;1.23;;;;;;;9.22;100.00;153727.44;5010957;28;20877;-76
2022/01/04 01:52:22;;;;;;;2.00;1.23;;;;;;;9.21;100.00;153723.59;5027419;28;20433;-77
2022/01/04 01:54:57;;;;;;;1.50;1.30;;;;;;;9.21;100.00;153723.59;4987515;28;20446;-77
2022/01/04 01:57:33;;;;;;;1.87;1.53;;;;;;;9.19;100.00;153719.69;5014647;28;20437;-77
2022/01/04 02:00:13;;;;;;;3.40;1.60;;;;;;;9.20;100.00;153722.28;4991237;28;20485;-77
2022/01/04 02:02:49;;;;;;;1.60;1.40;;;;;;;9.21;100.00;153723.59;4991119;28;20459;-76
2022/01/04 02:05:24;;;;;;;2.27;1.63;;;;;;;9.20;100.00;153722.28;4976498;28;20470;-77
2022/01/04 02:08:00;;;;;;;1.90;1.53;;;;;;;9.23;100.00;153730.03;4991033;28;20442;-77
2022/01/04 02:10:36;;;;;;;4.40;2.00;;;;;;;9.18;100.00;153717.13;4991016;28;20953;-77
2022/01/04 02:13:12;;;;;;;3.30;2.10;;;;;;;9.15;100.00;153709.34;4990743;28;20435;-77
2022/01/04 02:15:49;;;;;;;1.70;1.33;;;;;;;9.22;100.00;153727.44;4994121;28;20876;-76
2022/01/04 02:18:25;;;;;;;2.20;1.70;;;;;;;9.20;100.00;153722.28;5010459;28;20433;-77
2022/01/04 02:21:02;;;;;;;2.03;1.40;;;;;;;9.18;100.00;153718.41;4979267;28;20552;-77
2022/01/04 02:23:37;;;;;;;3.03;1.97;;;;;;;9.16;100.00;153711.91;5011138;28;20560;-77
2022/01/04 02:26:13;;;;;;;2.10;1.60;;;;;;;9.16;100.00;153711.91;5011776;28;20457;-77
2022/01/04 02:28:49;;;;;;;2.90;2.17;;;;;;;9.16;100.00;153713.22;4995394;28;20437;-77
2022/01/04 02:31:24;;;;;;;1.80;1.57;;;;;;;9.13;100.00;153704.19;4993860;28;20437;-77
2022/01/04 02:34:00;;;;;;;2.60;1.80;;;;;;;9.13;100.00;153705.44;4990541;28;21024;-77
2022/01/04 02:36:42;;;;;;;2.70;1.77;;;;;;;9.19;100.00;153719.69;4974359;28;20933;-77
2022/01/04 02:39:17;;;;;;;4.13;2.03;;;;;;;9.19;100.00;153719.69;4990530;28;20447;-77
2022/01/04 02:41:53;;;;;;;2.33;1.63;;;;;;;9.22;100.00;153726.13;5000432;28;20801;-77
2022/01/04 02:44:28;;;;;;;3.50;1.80;;;;;;;9.19;100.00;153719.69;4978555;28;20449;-77
2022/01/04 02:47:05;;;;;;;2.10;1.70;;;;;;;9.23;100.00;153728.75;5009738;28;20449;-77
2022/01/04 02:49:40;;;;;;;2.80;2.00;;;;;;;9.22;100.00;153727.44;5026579;28;20480;-76
2022/01/04 02:52:17;;;;;;;2.07;1.70;;;;;;;9.22;100.00;153727.44;5009832;28;20442;-77
2022/01/04 02:54:53;;;;;;;2.47;2.27;;;;;;;9.27;100.00;153739.06;5000746;28;20476;-77
2022/01/04 02:57:28;;;;;;;2.57;1.97;;;;;;;9.35;100.00;153759.75;5029406;28;20785;-77
2022/01/04 03:00:06;;;;;;;2.50;1.93;;;;;;;9.30;100.00;153748.13;5013065;28;20456;-76
2022/01/04 03:02:43;;;;;;;1.83;1.30;;;;;;;9.36;100.00;153763.66;5029296;28;20468;-77
2022/01/04 03:05:19;;;;;;;2.50;1.90;;;;;;;9.38;100.00;153768.84;5029471;28;20452;-76
2022/01/04 03:07:56;;;;;;;1.53;1.37;;;;;;;9.34;100.00;153758.50;4994301;28;20428;-77
2022/01/04 03:10:32;;;;;;;1.70;1.57;;;;;;;9.34;100.00;153757.22;5009352;28;20941;-77
2022/01/04 03:13:08;;;;;;;2.20;1.60;;;;;;;9.37;100.00;153766.22;5009229;28;20904;-77
2022/01/04 03:15:43;;;;;;;2.03;1.70;;;;;;;9.38;100.00;153768.84;5008417;28;20445;-76
2022/01/04 03:18:19;;;;;;;1.60;1.20;;;;;;;9.44;100.00;153784.38;5010738;28;20441;-77
2022/01/04 03:20:55;;;;;;;2.23;1.67;;;;;;;9.43;100.00;153780.47;5009279;28;20445;-77
2022/01/04 03:23:32;;;;;;;2.03;1.60;;;;;;;9.40;100.00;153772.75;5010124;28;20469;-77
2022/01/04 03:26:07;;;;;;;1.60;1.47;;;;;;;9.39;100.00;153771.44;4999926;28;20818;-77
2022/01/04 03:28:43;;;;;;;2.23;1.40;;;;;;;9.41;100.00;153775.31;4989450;28;20431;-77
2022/01/04 03:31:19;;;;;;;2.67;1.67;;;;;;;9.42;100.00;153779.22;4973326;28;20438;-77
2022/01/04 03:33:54;;;;;;;2.20;1.87;;;;;;;9.44;100.00;153784.38;4958244;28;20434;-77
2022/01/04 03:36:30;;;;;;;3.03;1.50;;;;;;;9.44;100.00;153784.38;4988498;28;20930;-77
2022/01/04 03:39:11;;;;;;;2.30;1.60;;;;;;;9.42;100.00;153777.91;4989324;28;20434;-77
2022/01/04 03:41:47;;;;;;;1.80;1.27;;;;;;;9.40;100.00;153774.00;4992320;28;20955;-77
2022/01/04 03:44:22;;;;;;;2.93;1.90;;;;;;;9.43;100.00;153780.47;5008749;28;20528;-77
2022/01/04 03:46:58;;;;;;;2.07;1.60;;;;;;;9.39;100.00;153770.13;5008834;28;20450;-77
2022/01/04 03:49:34;;;;;;;3.00;1.40;;;;;;;9.35;100.00;153761.06;4977361;28;20453;-77
2022/01/04 03:52:09;;;;;;;2.20;2.00;;;;;;;9.38;100.00;153768.84;4993684;28;20398;-77
2022/01/04 03:54:47;;;;;;;2.87;1.53;;;;;;;9.42;100.00;153777.91;4992303;28;20445;-77
2022/01/04 03:57:22;;;;;;;2.03;1.23;;;;;;;9.40;100.00;153774.00;5015032;28;20536;-77
2022/01/04 03:59:58;;;;;;;3.00;1.90;;;;;;;9.41;100.00;153776.59;5008613;28;20457;-77
2022/01/04 04:02:33;;;;;;;2.73;1.70;;;;;;;9.45;100.00;153786.94;5022682;28;20895;-77
2022/01/04 04:05:09;;;;;;;2.90;1.63;;;;;;;9.48;100.00;153794.69;4992153;28;20445;-77
2022/01/04 04:07:45;;;;;;;1.80;1.50;;;;;;;9.47;100.00;153790.84;4992215;28;20830;-77
2022/01/04 04:10:21;;;;;;;1.90;1.50;;;;;;;9.48;100.00;153793.41;5008195;28;20425;-77
2022/01/04 04:12:57;;;;;;;2.73;1.97;;;;;;;9.50;100.00;153799.91;5008370;28;20922;-77
2022/01/04 04:15:33;;;;;;;2.70;2.17;;;;;;;9.50;100.00;153799.91;5008278;28;20457;-77
2022/01/04 04:18:09;;;;;;;1.50;1.30;;;;;;;9.53;100.00;153806.38;5008330;28;20437;-77
2022/01/04 04:20:45;;;;;;;2.20;1.60;;;;;;;9.49;100.00;153797.31;5024970;28;20453;-76
2022/01/04 04:23:21;;;;;;;1.93;1.50;;;;;;;9.52;100.00;153803.78;5006951;28;20461;-76
2022/01/04 04:25:58;;;;;;;1.83;1.60;;;;;;;9.56;100.00;153815.41;5001499;28;20446;-76
2022/01/04 04:28:33;;;;;;;3.10;1.93;;;;;;;9.59;100.00;153821.88;4988645;28;20438;-76
2022/01/04 04:31:09;;;;;;;2.60;1.33;;;;;;;9.61;100.00;153828.34;4978226;28;20457;-76
2022/01/04 04:33:44;;;;;;;2.23;1.50;;;;;;;9.64;100.00;153834.81;4991695;28;20437;-76
2022/01/04 04:36:20;;;;;;;2.00;1.40;;;;;;;9.63;100.00;153833.53;4976650;28;20433;-76
2022/01/04 04:38:55;;;;;;;2.40;1.53;;;;;;;9.61;100.00;153828.34;5008034;28;20532;-76
2022/01/04 04:41:32;;;;;;;2.10;1.80;;;;;;;9.57;100.00;153818.00;5007715;28;20460;-76
2022/01/04 04:44:08;;;;;;;2.63;1.57;;;;;;;9.62;100.00;153829.63;4991582;28;20461;-76
2022/01/04 04:46:44;;;;;;;1.73;1.53;;;;;;;9.65;100.00;153838.72;5008400;28;20441;-76
2022/01/04 04:49:19;;;;;;;1.93;1.53;;;;;;;9.64;100.00;153836.09;5014223;28;20964;-76
2022/01/04 04:51:59;;;;;;;2.70;1.60;;;;;;;9.65;100.00;153837.41;5016298;28;20812;-76
2022/01/04 04:54:34;;;;;;;3.40;1.53;;;;;;;9.64;100.00;153836.09;5014525;28;20441;-76
2022/01/04 04:57:11;;;;;;;1.87;1.53;;;;;;;9.65;100.00;153838.72;5008847;28;20811;-76
2022/01/04 04:59:46;;;;;;;1.77;1.33;;;;;;;9.68;100.00;153846.47;5018950;28;20440;-77
2022/01/04 05:02:22;;;;;;;2.77;1.73;;;;;;;9.73;100.00;153858.09;5017522;28;20436;-76
2022/01/04 05:04:57;;;;;;;3.07;1.30;;;;;;;9.73;100.00;153858.09;5030206;28;20452;-76
2022/01/04 05:07:33;;;;;;;2.03;1.40;;;;;;;9.70;100.00;153851.63;5015531;28;20441;-76
2022/01/04 05:10:10;;;;;;;1.43;1.30;;;;;;;9.68;100.00;153846.47;5012999;28;20453;-76
2022/01/04 05:12:47;;;;;;;1.97;1.63;;;;;;;9.70;100.00;153851.63;4999352;28;20417;-76
2022/01/04 05:15:22;;;;;;;1.43;1.17;;;;;;;9.69;100.00;153847.72;5014254;28;20851;-76
2022/01/04 05:17:58;;;;;;;2.30;1.93;;;;;;;9.72;100.00;153856.81;5013240;28;20536;-76
2022/01/04 05:20:33;;;;;;;2.63;1.60;;;;;;;9.71;100.00;153854.25;5015528;28;20445;-76
2022/01/04 05:23:09;;;;;;;7.57;1.67;;;;;;;9.69;100.00;153849.03;5014028;28;20840;-77
2022/01/04 05:25:45;;;;;;;2.13;1.87;;;;;;;9.73;100.00;153858.09;5014296;28;20442;-76
2022/01/04 05:28:22;;;;;;;1.87;1.20;;;;;;;9.70;100.00;153851.63;5014058;28;20444;-76
2022/01/04 05:30:57;;;;;;;2.13;1.40;;;;;;;9.74;100.00;153861.97;4982845;28;20445;-76
2022/01/04 05:33:33;;;;;;;2.67;1.73;;;;;;;9.75;100.00;153864.56;5014041;28;20429;-76
2022/01/04 05:36:09;;;;;;;1.60;1.20;;;;;;;9.77;100.00;153868.44;4997937;28;20456;-76
2022/01/04 05:38:44;;;;;;;2.43;1.30;;;;;;;9.76;100.00;153867.19;4998611;28;20444;-77
2022/01/04 05:41:20;;;;;;;2.63;1.60;;;;;;;9.77;100.00;153869.75;4997479;28;20440;-76
2022/01/04 05:43:57;;;;;;;2.40;1.37;;;;;;;9.77;100.00;153868.44;5012724;28;20551;-76
2022/01/04 05:46:33;;;;;;;1.53;1.37;;;;;;;9.74;100.00;153861.97;5013761;28;20532;-76
2022/01/04 05:49:08;;;;;;;2.97;1.70;;;;;;;9.75;100.00;153864.56;5013902;28;20587;-76
2022/01/04 05:51:44;;;;;;;5.10;1.57;;;;;;;9.76;100.00;153867.19;5013930;28;20437;-76
2022/01/04 05:54:19;;;;;;;2.20;1.50;;;;;;;9.80;100.00;153877.50;4982720;28;20468;-76
2022/01/04 05:56:55;;;;;;;1.47;1.37;;;;;;;9.75;100.00;153864.56;5014056;28;20445;-76
2022/01/04 05:59:32;;;;;;;1.33;1.23;;;;;;;9.75;100.00;153864.56;4994649;28;20461;-76
2022/01/04 06:02:07;;;;;;;2.60;1.60;;;;;;;9.78;100.00;153872.34;4995718;28;20413;-76
2022/01/04 06:04:43;;;;;;;2.80;1.67;;;;;;;9.74;100.00;153861.97;5010655;28;20477;-76
2022/01/04 06:07:19;;;;;;;2.40;1.50;;;;;;;9.71;100.00;153852.94;5010629;28;20532;-76
2022/01/04 06:09:55;;;;;;;2.03;1.30;;;;;;;9.71;100.00;153852.94;5010394;28;20457;-76
2022/01/04 06:15:25;;;;;;;1.63;1.50;;;;;;;9.66;100.00;153841.25;4974837;28;20441;-76
2022/01/04 06:18:01;;;;;;;2.30;1.50;;;;;;;9.64;100.00;153836.09;4991017;28;20438;-76
2022/01/04 06:20:37;;;;;;;1.43;1.13;;;;;;;9.65;100.00;153838.72;4990939;28;20472;-76
2022/01/04 06:23:13;;;;;;;2.40;1.43;;;;;;;9.65;100.00;153838.72;4990781;28;20474;-76
2022/01/04 06:25:49;;;;;;;3.00;1.30;;;;;;;9.66;100.00;153840.00;4990891;28;20462;-76
2022/01/04 06:28:24;;;;;;;1.53;1.20;;;;;;;9.69;100.00;153849.03;4974339;28;20474;-76
2022/01/04 06:31:01;;;;;;;1.80;1.47;;;;;;;9.69;100.00;153847.72;5003245;28;20555;-76
2022/01/04 06:33:37;;;;;;;1.77;1.50;;;;;;;9.70;100.00;153851.63;4995126;28;20434;-76
2022/01/04 06:36:13;;;;;;;2.00;1.70;;;;;;;9.67;100.00;153843.88;4995149;28;20932;-76
2022/01/04 06:38:49;;;;;;;1.83;1.03;;;;;;;9.68;100.00;153846.47;4993548;28;20842;-76
2022/01/04 06:41:25;;;;;;;1.70;1.40;;;;;;;9.72;100.00;153856.81;5009870;28;20441;-76
2022/01/04 06:44:00;;;;;;;1.20;1.10;;;;;;;9.75;100.00;153863.28;5010085;28;20489;-76
2022/01/04 06:46:38;;;;;;;1.87;1.30;;;;;;;9.72;100.00;153856.81;5009700;28;20433;-76
2022/01/04 06:49:14;;;;;;;1.57;1.23;;;;;;;9.73;100.00;153859.41;5008629;28;20481;-76
2022/01/04 06:51:50;;;;;;;1.87;1.40;;;;;;;9.73;100.00;153858.09;4978729;28;20873;-76
2022/01/04 06:54:25;;;;;;;1.30;1.00;;;;;;;9.77;100.00;153868.44;5009719;28;20439;-76
2022/01/04 06:57:01;;;;;;;1.37;0.83;;;;;;;9.75;100.00;153863.28;4993438;28;20852;-76
2022/01/04 06:59:36;;;;;;;1.60;0.83;;;;;;;9.76;100.00;153867.19;5028131;28;20441;-76
2022/01/04 07:02:13;;;;;;;1.30;1.03;;;;;;;9.78;100.00;153872.34;5014059;28;20777;-76
2022/01/04 07:04:49;;;;;;;2.47;1.17;;;;;;;9.78;100.00;153871.03;5018464;28;20484;-76
2022/01/04 07:07:24;;;;;;;1.70;1.20;;;;;;;9.85;100.00;153887.88;4994199;28;20418;-76
2022/01/04 07:09:59;;;;;;;2.90;1.50;;;;;;;9.84;100.00;153886.59;4993431;28;20437;-76
2022/01/04 07:12:35;;;;;;;1.87;1.67;;;;;;;9.82;100.00;153880.13;5008378;28;20436;-76
2022/01/04 07:15:11;;;;;;;1.97;1.47;;;;;;;9.85;100.00;153889.16;5009716;28;20445;-76
2022/01/04 07:17:47;;;;;;;2.20;1.40;;;;;;;9.82;100.00;153882.69;5009363;28;20832;-76
2022/01/04 07:20:23;;;;;;;3.00;1.30;;;;;;;9.82;100.00;153880.13;5009488;28;20453;-76
2022/01/04 07:22:59;;;;;;;2.00;1.20;;;;;;;9.84;100.00;153885.28;5009154;28;20790;-76
2022/01/04 07:25:34;;;;;;;2.50;1.77;;;;;;;9.82;100.00;153880.13;4992912;28;20442;-76
2022/01/04 07:28:10;;;;;;;3.80;1.70;;;;;;;9.80;100.00;153877.50;4989424;28;20682;-76
2022/01/04 07:30:46;;;;;;;1.33;1.00;;;;;;;9.79;100.00;153874.91;4974745;28;20486;-76
2022/01/04 07:33:23;;;;;;;1.80;1.20;;;;;;;9.82;100.00;153881.41;4989520;28;20922;-76
2022/01/04 07:35:58;;;;;;;2.00;1.30;;;;;;;9.85;100.00;153887.88;4973581;28;20441;-76
2022/01/04 07:38:34;;;;;;;3.03;1.57;;;;;;;9.82;100.00;153881.41;4992119;28;20456;-76
2022/01/04 07:41:10;;;;;;;2.03;1.43;;;;;;;9.84;100.00;153885.28;5009167;28;20824;-76
2022/01/04 07:43:46;;;;;;;2.80;1.87;;;;;;;9.85;100.00;153887.88;4993780;28;20465;-76
2022/01/04 07:46:23;;;;;;;2.60;1.17;;;;;;;9.87;100.00;153893.06;5009174;28;20430;-76
2022/01/04 07:49:00;;;;;;;1.60;1.30;;;;;;;9.93;100.00;153908.59;4992219;28;20477;-76
2022/01/04 07:51:36;;;;;;;1.50;1.13;;;;;;;9.94;100.00;153912.47;5008720;28;20434;-76
2022/01/04 07:54:11;;;;;;;2.30;1.33;;;;;;;9.95;100.00;153915.06;5008723;28;20929;-76
2022/01/04 07:56:47;;;;;;;2.60;1.13;;;;;;;10.00;100.00;153926.69;4993462;28;20848;-76
2022/01/04 07:59:23;;;;;;;1.57;1.03;;;;;;;10.07;100.00;153946.09;5025236;28;20448;-76
2022/01/04 08:01:58;;;;;;;1.47;1.20;;;;;;;10.12;100.00;153959.09;5011852;28;20929;-76
2022/01/04 08:04:35;;;;;;;1.63;1.20;;;;;;;10.19;100.00;153975.94;5013019;28;20476;-76
2022/01/04 08:07:11;;;;;;;1.63;1.23;;;;;;;10.24;100.00;153990.19;5028254;28;20436;-76
2022/01/04 08:09:47;;;;;;;1.97;1.30;;;;;;;10.32;100.00;154010.91;5028238;28;20448;-76
2022/01/04 08:12:22;;;;;;;2.70;1.23;;;;;;;10.42;100.00;154034.16;5004079;28;20817;-76
2022/01/04 08:14:58;;;;;;;1.53;1.10;;;;;;;10.50;100.00;154054.88;5008652;28;20440;-76
2022/01/04 08:17:34;;;;;;;2.23;1.00;;;;;;;10.55;100.00;154067.84;5024823;28;20491;-76
2022/01/04 08:20:11;;;;;;;1.20;0.83;;;;;;;10.59;100.00;154079.47;4993562;28;20445;-76
2022/01/04 08:22:47;;;;;;;1.67;1.20;;;;;;;10.62;100.00;154087.25;4992658;28;20480;-76
2022/01/04 08:25:22;;;;;;;2.23;1.27;;;;;;;10.68;100.00;154101.50;5008306;28;20470;-76
2022/01/04 08:27:58;;;;;;;1.40;1.30;;;;;;;10.61;100.00;154084.69;4992973;28;20422;-76
2022/01/04 08:30:34;;;;;;;1.80;1.17;;;;;;;10.63;100.00;154089.84;4991673;28;20448;-76
2022/01/04 08:33:09;;;;;;;2.77;1.50;;;;;;;10.72;100.00;154113.13;4991729;28;20437;-76
2022/01/04 08:35:46;;;;;;;1.43;1.10;;;;;;;10.74;100.00;154118.34;4976823;28;20453;-76
2022/01/04 08:38:22;;;;;;;1.93;1.00;;;;;;;10.76;100.00;154123.53;5008048;28;20429;-76
2022/01/04 08:40:57;;;;;;;1.60;1.10;;;;;;;10.79;100.00;154131.28;4976909;28;20488;-76
2022/01/04 08:43:33;;;;;;;2.40;1.13;;;;;;;10.85;100.00;154145.53;4976432;28;20473;-76
2022/01/04 08:46:09;;;;;;;1.57;0.90;;;;;;;10.86;100.00;154148.09;5008252;28;20785;-76
2022/01/04 08:48:44;;;;;;;1.70;1.10;;;;;;;10.86;100.00;154149.41;5007737;28;20473;-76
2022/01/04 08:51:22;;;;;;;1.60;1.10;;;;;;;10.92;100.00;154163.66;5008041;28;20528;-76
2022/01/04 08:53:57;;;;;;;2.00;1.80;;;;;;;10.90;100.00;154159.78;5006649;28;20488;-76
2022/01/04 08:56:34;;;;;;;2.57;1.10;;;;;;;10.93;100.00;154167.53;4992729;28;20476;-76
2022/01/04 08:59:10;;;;;;;2.13;1.57;;;;;;;11.00;100.00;154185.69;5022523;28;20865;-76
2022/01/04 09:01:45;;;;;;;1.77;1.20;;;;;;;11.06;100.00;154199.94;5011147;28;20436;-76
2022/01/04 09:04:21;;;;;;;1.40;1.20;;;;;;;11.00;100.00;154185.69;5011991;28;21035;-76
2022/01/04 09:06:58;;;;;;;1.60;1.10;;;;;;;11.08;100.00;154203.81;5007711;28;20441;-76
2022/01/04 09:09:34;;;;;;;2.00;1.20;;;;;;;11.07;100.00;154201.25;5008896;28;20457;-76
2022/01/04 09:12:10;;;;;;;1.67;1.27;;;;;;;11.15;100.00;154221.94;5022025;28;20430;-76
2022/01/04 09:14:56;;;;;;;1.53;1.30;;;;;;;11.21;100.00;154237.47;5007843;28;20445;-76
2022/01/04 09:20:25;;;;;;;1.70;1.40;;;;;;;11.22;100.00;154240.09;5024294;28;20446;-76
2022/01/04 09:23:02;;;;;;;1.77;1.37;;;;;;;11.19;100.00;154232.31;5008922;28;20449;-76
2022/01/04 09:25:37;;;;;;;2.20;1.57;;;;;;;11.20;100.00;154234.94;5007843;28;20478;-76
2022/01/04 09:28:13;;;;;;;1.20;1.00;;;;;;;11.22;100.00;154240.09;5003148;28;20437;-76
2022/01/04 09:30:50;;;;;;;1.93;1.50;;;;;;;11.24;100.00;154245.25;4988253;28;20454;-76
2022/01/04 09:33:26;;;;;;;2.03;0.80;;;;;;;11.23;100.00;154243.97;4987966;28;20423;-76
2022/01/04 09:36:02;;;;;;;1.40;1.00;;;;;;;11.20;100.00;154234.94;4975034;28;20461;-76
2022/01/04 09:38:39;;;;;;;2.40;1.27;;;;;;;11.21;100.00;154237.47;4993989;28;20485;-76
2022/01/04 09:41:14;;;;;;;1.67;1.07;;;;;;;11.18;100.00;154229.72;5011515;28;20449;-76
2022/01/04 09:43:51;;;;;;;1.80;1.43;;;;;;;11.19;100.00;154232.31;5011423;28;20469;-76
2022/01/04 09:46:28;;;;;;;1.97;1.40;;;;;;;11.18;100.00;154229.72;5011209;28;20437;-76
2022/01/04 09:49:04;;;;;;;1.73;1.40;;;;;;;11.19;100.00;154232.31;4979306;28;20839;-76
2022/01/04 09:51:42;;;;;;;1.63;1.37;;;;;;;11.22;100.00;154240.09;4995006;28;20757;-76
2022/01/04 09:54:22;;;;;;;1.40;1.23;;;;;;;11.25;100.00;154249.13;4995843;28;20442;-76
2022/01/04 09:56:57;;;;;;;2.20;1.30;;;;;;;11.24;100.00;154245.25;5010987;28;20429;-76
2022/01/04 09:59:33;;;;;;;1.70;1.10;;;;;;;11.27;100.00;154253.03;5011828;28;20453;-76
2022/01/04 10:02:13;;;;;;;2.73;1.57;;;;;;;11.21;100.00;154238.78;5030587;28;20558;-76
2022/01/04 10:04:49;;;;;;;1.73;1.10;;;;;;;11.25;100.00;154249.13;5030125;28;20562;-76
2022/01/04 10:07:24;;;;;;;1.53;1.17;;;;;;;11.26;100.00;154250.44;5030572;28;20449;-76
2022/01/04 10:10:03;;;;;;;3.17;1.40;;;;;;;11.27;100.00;154253.03;5030422;28;20444;-76
2022/01/04 10:12:53;;;;;;;2.53;1.60;;;;;;;11.30;100.00;154260.81;5012557;28;20937;-76
2022/01/04 10:15:33;;;;;;;1.50;1.10;;;;;;;11.31;100.00;154263.38;5011809;28;20452;-76
2022/01/04 10:18:24;;;;;;;2.67;1.73;;;;;;;11.28;100.00;154255.66;5010743;28;20528;-76
2022/01/04 10:21:14;;;;;;;2.20;1.53;;;;;;;11.30;100.00;154260.81;4994324;28;20865;-76
2022/01/04 10:23:53;;;;;;;3.13;1.53;;;;;;;11.30;100.00;154260.81;4994266;28;20513;-76
2022/01/04 10:26:35;;;;;;;2.77;1.70;;;;;;;11.33;100.00;154268.59;5024652;28;20430;-76
2022/01/04 10:29:20;;;;;;;2.63;1.40;;;;;;;11.33;100.00;154268.59;5011238;28;20465;-76
2022/01/04 10:32:09;;;;;;;1.80;1.50;;;;;;;11.34;100.00;154272.47;5010236;28;20441;-76
2022/01/04 10:34:48;;;;;;;2.03;1.43;;;;;;;11.39;100.00;154285.41;4993783;28;20441;-76
2022/01/04 10:37:33;;;;;;;1.93;1.20;;;;;;;11.48;100.00;154308.75;4993811;28;20885;-76
2022/01/04 10:40:09;;;;;;;3.27;1.67;;;;;;;11.49;100.00;154310.06;5010003;28;20456;-76
2022/01/04 10:42:47;;;;;;;3.30;1.33;;;;;;;11.55;100.00;154326.88;5009883;28;20793;-76
2022/01/04 10:45:29;;;;;;;1.90;1.40;;;;;;;11.50;100.00;154313.94;4978017;28;20510;-76
2022/01/04 10:48:14;;;;;;;2.20;1.57;;;;;;;11.54;100.00;154323.03;5009752;28;20476;-76
2022/01/04 10:50:51;;;;;;;2.87;1.63;;;;;;;11.57;100.00;154332.06;5008704;28;20801;-77
2022/01/04 10:53:30;;;;;;;2.63;1.87;;;;;;;11.59;100.00;154337.28;4993573;28;20426;-76
2022/01/04 10:56:08;;;;;;;1.90;1.40;;;;;;;11.59;100.00;154337.28;4993425;28;20441;-76
2022/01/04 10:58:46;;;;;;;3.17;1.67;;;;;;;11.57;100.00;154332.06;5008781;28;21150;-76
2022/01/04 11:01:24;;;;;;;2.10;1.50;;;;;;;11.55;100.00;154325.59;5025493;28;20568;-76
2022/01/04 11:04:01;;;;;;;2.43;1.67;;;;;;;11.52;100.00;154317.81;5009225;28;20443;-76
2022/01/04 11:06:39;;;;;;;2.50;1.20;;;;;;;11.55;100.00;154326.88;4993127;28;20472;-76
2022/01/04 11:09:14;;;;;;;2.57;2.00;;;;;;;11.54;100.00;154323.03;5009852;28;20924;-76
2022/01/04 11:11:50;;;;;;;2.33;1.80;;;;;;;11.55;100.00;154325.59;4993132;28;20433;-76
2022/01/04 11:14:27;;;;;;;2.17;1.47;;;;;;;11.56;100.00;154328.19;5009475;28;20775;-76
2022/01/04 11:17:03;;;;;;;3.23;2.00;;;;;;;11.56;100.00;154329.50;4994311;28;20421;-76
2022/01/04 11:19:38;;;;;;;2.30;1.80;;;;;;;11.63;100.00;154347.63;5009209;28;20469;-76
2022/01/04 11:22:14;;;;;;;3.00;2.10;;;;;;;11.64;100.00;154348.94;5009419;28;20441;-76
2022/01/04 11:24:49;;;;;;;3.40;1.70;;;;;;;11.68;100.00;154357.97;4992973;28;20469;-76
2022/01/04 11:27:25;;;;;;;1.90;1.40;;;;;;;11.68;100.00;154359.28;5010406;28;20426;-76
2022/01/04 11:30:04;;;;;;;2.43;1.30;;;;;;;11.71;100.00;154367.09;5009162;28;20532;-76
2022/01/04 11:32:42;;;;;;;1.90;1.50;;;;;;;11.70;100.00;154364.53;4977412;28;20823;-76
2022/01/04 11:35:21;;;;;;;1.60;1.40;;;;;;;11.74;100.00;154373.59;5009217;28;20438;-76
2022/01/04 11:37:57;;;;;;;1.97;1.50;;;;;;;11.73;100.00;154372.28;5008864;28;20580;-77
2022/01/04 11:40:36;;;;;;;3.93;1.80;;;;;;;11.73;100.00;154372.28;5009010;28;20806;-77
2022/01/04 11:43:25;;;;;;;1.60;1.40;;;;;;;11.74;100.00;154373.59;4974413;28;20446;-77
2022/01/04 11:46:02;;;;;;;2.10;1.50;;;;;;;11.66;100.00;154354.09;4989436;28;20572;-77
2022/01/04 11:48:40;;;;;;;2.27;1.70;;;;;;;11.67;100.00;154355.41;4989043;28;20993;-77
2022/01/04 11:51:36;;;;;;;2.20;1.83;;;;;;;11.60;100.00;154339.84;4989052;28;20435;-77
2022/01/04 11:54:17;;;;;;;1.70;1.40;;;;;;;11.57;100.00;154330.75;4987784;28;20473;-77
2022/01/04 11:56:54;;;;;;;3.10;1.83;;;;;;;11.57;100.00;154332.06;5007825;28;20818;-77
2022/01/04 11:59:34;;;;;;;3.27;2.13;;;;;;;11.54;100.00;154323.03;5025794;28;20452;-77
2022/01/04 12:02:28;;;;;;;3.07;1.73;;;;;;;11.52;100.00;154317.81;5027969;28;20436;-77
2022/01/04 12:05:14;;;;;;;3.33;2.10;;;;;;;11.49;100.00;154311.31;4996678;28;20472;-77
2022/01/04 12:07:51;;;;;;;2.30;1.90;;;;;;;11.53;100.00;154320.41;5028155;28;20503;-77
2022/01/04 12:10:37;;;;;;;4.50;1.73;;;;;;;11.52;100.00;154317.81;5004956;28;20446;-77